Latest Weather Observations for Cape Leeuwin

IDW60801

Issued at 10:23 pm WST Wednesday 8 July 2020 (issued every 10 minutes, with the page automatically refreshed every 10 minutes)

About weather observations | Map of weather stations | Latest weather observations for WA | Other Formats
Station Details ID: 009518 Name: CAPE LEEUWIN Lat: -34.37 Lon: 115.14 Height: 13.0 m
Data from the previous 72 hours. | See also: Recent months at Cape Leeuwin
Date/Time
WST
Temp
°C
App
Temp
°C
Dew
Point
°C
Rel
Hum
%
Delta-T
°C
Wind Press
QNH
hPa
Press
MSL
hPa
Rain since
9am
mm
Dir  Spd
km/h
Gust
km/h
Spd
kts
Gust
kts
08/10:00pm 13.3 8.2 7.5 68 2.8 S 24 35 13 19 1025.0 1025.0 2.4
08/09:30pm 13.2 8.6 8.3 72 2.4 SSE 22 32 12 17 1025.1 1025.1 2.4
08/09:00pm 13.3 7.1 9.4 77 2.0 S 32 44 17 24 1025.1 1025.1 2.4
08/08:30pm 12.9 8.0 9.9 82 1.5 SSE 26 35 14 19 1025.0 1025.0 2.4
08/08:00pm 12.8 7.0 9.4 80 1.7 SSE 30 39 16 21 1024.9 1024.9 2.4
08/07:51pm 12.8 7.5 9.8 82 1.5 SSE 28 39 15 21 1024.8 1024.8 2.4
08/07:30pm 12.7 8.5 9.7 82 1.5 ESE 22 32 12 17 1024.6 1024.6 2.4
08/07:00pm 13.5 8.9 9.6 77 2.0 S 24 33 13 18 1024.5 1024.5 2.0
08/06:30pm 13.3 8.5 9.0 75 2.2 S 24 33 13 18 1024.3 1024.3 2.0
08/06:00pm 13.5 9.0 8.4 71 2.5 S 22 30 12 16 1024.1 1024.1 2.0
08/05:30pm 13.8 8.6 8.8 72 2.5 S 26 37 14 20 1024.0 1024.0 2.0
08/05:00pm 14.1 8.0 8.3 68 2.9 SSW 30 41 16 22 1023.8 1023.8 2.0
08/04:30pm 14.4 8.3 9.6 73 2.5 SSW 32 43 17 23 1023.8 1023.8 2.0
08/04:00pm 14.4 8.7 9.8 74 2.4 SSW 30 41 16 22 1023.7 1023.7 2.0
08/03:30pm 13.9 10.1 11.1 83 1.5 SSW 22 39 12 21 1023.5 1023.5 2.0
08/03:00pm 14.7 9.1 11.5 81 1.7 SW 32 39 17 21 1023.3 1023.3 2.0
08/02:30pm 14.4 8.3 11.6 83 1.5 SSW 35 44 19 24 1023.2 1023.2 2.0
08/02:00pm 13.6 8.8 11.7 88 1.0 S 28 39 15 21 1023.2 1023.2 2.0
08/01:30pm 13.7 8.2 11.8 88 1.0 SW 32 39 17 21 1023.5 1023.5 2.0
08/01:00pm 13.9 7.9 12.1 89 1.0 SW 35 41 19 22 1023.6 1023.6 2.0
08/12:51pm 13.7 9.4 11.9 89 1.0 SSW 26 41 14 22 1023.8 1023.8 2.0
08/12:30pm 13.5 11.4 11.0 85 1.3 SSW 13 20 7 11 1024.1 1024.1 0.6
08/12:00pm 14.4 9.6 10.4 77 2.1 SW 26 35 14 19 1024.4 1024.4 0.0
08/11:30am 14.6 9.2 11.0 79 1.9 SW 30 35 16 19 1024.5 1024.5 0.0
08/11:00am 14.6 8.0 10.0 74 2.4 SSW 35 44 19 24 1024.5 1024.5 0.0
08/10:30am 16.4 11.6 8.9 61 3.9 SSW 24 30 13 16 1024.4 1024.4 0.0
08/10:00am 16.2 11.8 8.9 62 3.7 SSW 22 30 12 16 1024.3 1024.3 0.0
08/09:30am 14.8 10.8 9.0 68 3.0 S 20 30 11 16 1024.0 1024.0 0.0
08/09:00am 14.9 8.8 8.2 64 3.3 SSW 30 39 16 21 1023.9 1023.9 7.4
08/08:30am 14.2 8.1 6.6 60 3.7 SSW 28 39 15 21 1023.7 1023.7 7.4
08/08:00am 14.3 8.9 7.8 65 3.2 SSW 26 35 14 19 1023.2 1023.2 7.4
08/07:30am 13.9 7.0 7.2 64 3.3 SSW 33 46 18 25 1022.7 1022.7 7.4
08/07:00am 14.4 7.5 8.8 69 2.8 SW 35 44 19 24 1022.2 1022.2 7.4
08/06:30am 14.4 7.3 9.4 72 2.6 SW 37 48 20 26 1021.6 1021.6 7.4
08/06:00am 14.6 8.9 11.0 79 1.9 SW 32 41 17 22 1021.4 1021.4 7.4
08/05:30am 14.5 7.8 9.7 73 2.5 SW 35 46 19 25 1021.2 1021.2 7.4
08/05:00am 14.3 8.6 9.7 74 2.4 SW 30 41 16 22 1020.9 1020.9 7.4
08/04:30am 13.9 7.7 9.3 74 2.3 SW 32 41 17 22 1020.8 1020.8 7.4
08/04:00am 13.9 8.4 10.7 81 1.7 WSW 30 43 16 23 1020.7 1020.7 7.4
08/03:32am 13.0 6.7 10.9 87 1.1 WSW 35 54 19 29 1021.0 1021.0 7.4
08/03:30am 13.0 5.8 10.7 86 1.2 WSW 39 54 21 29 1021.1 1021.1 7.4
08/03:00am 14.5 6.8 10.3 76 2.2 WSW 41 48 22 26 1020.8 1020.8 6.6
08/02:30am 14.7 8.6 10.3 75 2.3 WSW 33 44 18 24 1020.7 1020.7 6.6
08/02:00am 14.7 6.4 9.3 70 2.8 WSW 43 50 23 27 1020.7 1020.7 6.6
08/01:30am 14.9 6.7 9.7 71 2.7 WSW 43 54 23 29 1020.6 1020.6 6.6
08/01:00am 14.7 6.7 8.9 68 2.9 WSW 41 50 22 27 1020.5 1020.5 6.6
08/12:30am 14.5 5.9 8.0 65 3.2 WSW 43 50 23 27 1020.7 1020.7 6.6
08/12:00am 14.8 6.3 9.2 69 2.9 WSW 44 52 24 28 1020.5 1020.5 6.6
 
Date/Time
WST
Temp
°C
App
Temp
°C
Dew
Point
°C
Rel
Hum
%
Delta-T
°C
Wind Press
QNH
hPa
Press
MSL
hPa
Rain since
9am
mm
Dir  Spd
km/h
Gust
km/h
Spd
kts
Gust
kts
07/11:30pm 14.6 6.1 8.5 67 3.1 WSW 43 57 23 31 1020.7 1020.7 6.6
07/11:00pm 13.3 3.9 8.6 73 2.3 WSW 48 67 26 36 1021.0 1021.0 6.6
07/10:53pm 14.1 5.1 8.9 71 2.6 WSW 46 67 25 36 1020.7 1020.7 6.6
07/10:30pm 14.2 5.9 9.2 72 2.5 WSW 43 52 23 28 1020.7 1020.7 6.6
07/10:00pm 13.3 5.0 9.9 80 1.7 WSW 44 65 24 35 1020.9 1020.9 6.6
07/09:31pm 13.1 3.1 9.2 77 2.0 WSW 52 70 28 38 1020.8 1020.8 6.2
07/09:30pm 13.4 3.1 9.8 79 1.8 WSW 54 70 29 38 1020.8 1020.8 6.2
07/09:21pm 14.3 5.6 9.9 75 2.3 WSW 46 65 25 35 1020.5 1020.5 6.2
07/09:00pm 14.1 6.6 9.5 74 2.4 WSW 39 48 21 26 1020.4 1020.4 6.2
07/08:52pm 13.4 4.0 8.7 73 2.4 WSW 48 67 26 36 1020.4 1020.4 6.2
07/08:30pm 15.1 6.1 8.8 66 3.2 WSW 46 56 25 30 1020.1 1020.1 6.2
07/08:00pm 14.8 6.3 8.5 66 3.2 WSW 43 50 23 27 1020.0 1020.0 6.2
07/07:30pm 15.0 5.5 6.8 58 4.0 WSW 46 54 25 29 1019.7 1019.7 6.2
07/07:00pm 15.1 5.5 7.9 62 3.6 W 48 57 26 31 1019.5 1019.5 6.2
07/06:30pm 15.1 4.8 8.1 63 3.5 W 52 65 28 35 1019.1 1019.1 6.2
07/06:00pm 15.1 5.6 9.7 70 2.8 WSW 50 59 27 32 1018.8 1018.8 6.2
07/05:30pm 15.1 4.8 10.9 76 2.2 W 56 65 30 35 1018.5 1018.5 6.2
07/05:03pm 14.3 6.4 11.6 84 1.4 W 44 63 24 34 1018.4 1018.4 6.2
07/05:00pm 14.4 7.0 12.3 87 1.1 W 43 52 23 28 1018.5 1018.5 6.2
07/04:30pm 14.6 6.3 12.6 88 1.1 W 48 59 26 32 1018.5 1018.5 5.6
07/04:00pm 14.3 6.5 12.9 91 0.8 W 46 54 25 29 1018.3 1018.3 5.4
07/03:30pm 14.8 6.4 12.3 85 1.4 W 48 59 26 32 1018.0 1018.0 0.2
07/03:12pm 15.2 6.5 11.4 78 2.0 WNW 48 67 26 36 1018.0 1018.0 0.0
07/03:00pm 16.3 8.3 10.4 68 3.1 WNW 43 56 23 30 1017.9 1017.9 0.0
07/02:30pm 16.2 8.0 9.6 65 3.4 WNW 43 52 23 28 1018.2 1018.2 0.0
07/02:00pm 16.4 7.1 9.1 62 3.8 WNW 48 56 26 30 1018.2 1018.2 0.0
07/01:30pm 16.1 7.4 10.0 67 3.2 WNW 46 54 25 29 1018.6 1018.6 0.0
07/01:00pm 15.5 6.8 9.8 69 3.0 WNW 46 56 25 30 1018.9 1018.9 0.0
07/12:30pm 15.7 8.3 9.8 68 3.1 WNW 39 48 21 26 1019.2 1019.2 0.0
07/12:00pm 15.8 7.7 8.8 63 3.6 WNW 41 46 22 25 1019.7 1019.7 0.0
07/11:30am 15.4 8.2 10.4 72 2.6 NW 39 50 21 27 1020.2 1020.2 0.0
07/11:00am 15.7 7.3 8.9 64 3.5 WNW 43 50 23 27 1020.2 1020.2 0.0
07/10:30am 15.2 7.6 8.9 66 3.2 WNW 39 50 21 27 1020.3 1020.3 0.0
07/10:14am 14.6 7.2 9.8 73 2.5 WNW 39 46 21 25 1020.4 1020.4 0.0
07/10:00am 14.6 6.4 9.6 72 2.6 W 43 50 23 27 1020.4 1020.4 0.0
07/09:30am 14.0 6.4 9.0 72 2.5 WNW 39 52 21 28 1020.3 1020.3 0.0
07/09:00am 14.8 7.2 9.0 68 2.9 W 39 52 21 28 1019.8 1019.8 13.6
07/08:30am 14.9 6.7 8.4 65 3.3 WNW 41 46 22 25 1019.5 1019.5 13.6
07/08:00am 14.4 6.9 9.6 73 2.5 W 39 48 21 26 1019.4 1019.4 13.6
07/07:30am 14.7 6.1 8.2 65 3.3 W 43 56 23 30 1019.1 1019.1 13.6
07/07:00am 14.6 6.0 8.8 68 2.9 W 44 56 24 30 1018.8 1018.8 13.6
07/06:30am 14.5 5.4 8.5 67 3.0 W 46 56 25 30 1018.6 1018.6 13.6
07/06:00am 14.5 6.0 10.5 77 2.1 W 46 54 25 29 1018.1 1018.1 13.6
07/05:30am 13.4 4.6 11.1 86 1.2 W 48 59 26 32 1018.1 1018.1 13.6
07/05:00am 14.0 4.0 10.8 81 1.7 W 54 65 29 35 1017.5 1017.5 13.6
07/04:30am 14.4 5.0 11.6 83 1.5 W 52 61 28 33 1017.4 1017.4 13.4
07/04:00am 14.5 4.8 11.7 83 1.5 W 54 63 29 34 1017.2 1017.2 13.4
07/03:30am 14.0 4.0 11.9 87 1.1 W 56 67 30 36 1017.2 1017.2 13.4
07/03:00am 14.4 4.5 12.4 88 1.1 W 56 69 30 37 1016.8 1016.8 13.4
07/02:30am 15.0 5.0 12.1 83 1.6 W 56 63 30 34 1016.5 1016.5 13.2
07/02:00am 15.2 5.2 12.5 84 1.5 W 57 67 31 36 1016.5 1016.5 13.2
07/01:30am 15.5 4.7 12.6 83 1.6 W 61 70 33 38 1016.2 1016.2 13.2
07/01:00am 15.3 4.7 13.2 87 1.2 W 61 72 33 39 1016.0 1016.0 13.2
07/12:30am 15.3 4.7 13.0 86 1.3 W 61 74 33 40 1015.8 1015.8 13.2
07/12:00am 15.3 4.2 12.8 85 1.4 W 63 74 34 40 1015.5 1015.5 13.2
 
Date/Time
WST
Temp
°C
App
Temp
°C
Dew
Point
°C
Rel
Hum
%
Delta-T
°C
Wind Press
QNH
hPa
Press
MSL
hPa
Rain since
9am
mm
Dir  Spd
km/h
Gust
km/h
Spd
kts
Gust
kts
06/11:30pm 15.1 3.6 12.8 86 1.3 W 65 78 35 42 1015.5 1015.5 13.2
06/11:00pm 15.3 3.8 12.8 85 1.4 W 65 80 35 43 1015.0 1015.0 13.2
06/10:30pm 15.3 4.0 13.3 88 1.1 W 65 83 35 45 1014.9 1014.9 13.2
06/10:09pm 15.9 4.3 13.6 86 1.3 W 67 91 36 49 1014.5 1014.5 12.8
06/10:00pm 15.6 3.6 13.6 88 1.1 W 69 80 37 43 1014.5 1014.5 12.8
06/09:30pm 14.6 3.2 13.1 91 0.8 W 65 80 35 43 1014.2 1014.2 12.6
06/09:00pm 15.3 4.1 13.5 89 1.0 W 65 85 35 46 1013.9 1013.9 11.6
06/08:30pm 15.7 4.0 13.4 86 1.3 W 67 82 36 44 1013.5 1013.5 11.4
06/08:00pm 15.4 4.1 13.2 87 1.2 W 65 76 35 41 1013.2 1013.2 11.2
06/07:37pm 15.4 3.6 13.1 86 1.3 WNW 67 85 36 46 1012.9 1012.9 11.2
06/07:30pm 15.3 4.0 13.3 88 1.1 WNW 65 76 35 41 1012.9 1012.9 11.2
06/07:01pm 15.7 3.8 12.8 83 1.6 W 67 85 36 46 1012.4 1012.4 11.2
06/07:00pm 16.0 4.4 13.7 86 1.3 W 67 80 36 43 1012.4 1012.4 11.2
06/06:30pm 15.7 3.6 13.2 85 1.4 W 69 83 37 45 1012.0 1012.0 10.8
06/06:00pm 15.5 3.3 13.0 85 1.4 WNW 69 87 37 47 1011.3 1011.3 10.8
06/05:31pm 15.5 3.5 13.5 88 1.1 WNW 69 87 37 47 1010.9 1010.9 10.8
06/05:30pm 15.3 3.1 13.5 89 1.0 WNW 70 87 38 47 1010.9 1010.9 10.8
06/05:00pm 15.7 3.1 13.4 86 1.3 WNW 72 87 39 47 1010.3 1010.3 10.6
06/04:30pm 15.8 3.8 14.2 90 0.9 WNW 70 93 38 50 1010.1 1010.1 10.2
06/04:23pm 15.2 3.3 13.7 91 0.8 WNW 69 87 37 47 1009.9 1009.9 10.2
06/04:00pm 15.0 2.2 12.9 87 1.2 WNW 72 89 39 48 1009.3 1009.3 9.6
06/03:40pm 15.1 2.5 13.3 89 1.0 WNW 72 91 39 49 1009.3 1009.3 9.2
06/03:30pm 15.5 1.9 12.6 83 1.6 WNW 76 91 41 49 1008.9 1008.9 8.6
06/03:10pm 15.5 1.6 12.8 84 1.5 WNW 78 98 42 53 1008.4 1008.4 8.6
06/03:00pm 15.2 0.8 12.5 84 1.5 WNW 80 96 43 52 1008.3 1008.3 8.6
06/02:30pm 14.7 0.3 12.7 88 1.1 WNW 80 98 43 53 1008.1 1008.1 8.4
06/02:00pm 15.4 1.4 12.5 83 1.6 WNW 78 96 42 52 1007.7 1007.7 7.8
06/01:37pm 14.5 1.2 12.4 87 1.1 WNW 74 93 40 50 1007.8 1007.8 7.6
06/01:30pm 14.7 1.5 12.7 88 1.1 WNW 74 89 40 48 1008.1 1008.1 7.2
06/01:03pm 13.5 0.0 10.5 82 1.6 WNW 72 98 39 53 1008.1 1008.1 6.4
06/01:00pm 15.3 2.7 12.2 82 1.7 WNW 70 82 38 44 1008.3 1008.3 6.4
06/12:39pm 15.5 3.1 12.3 81 1.7 WNW 69 87 37 47 1008.4 1008.4 6.4
06/12:30pm 15.1 1.5 11.3 78 2.0 WNW 74 91 40 49 1008.3 1008.3 6.4
06/12:19pm 15.4 2.7 11.4 77 2.1 WNW 69 89 37 48 1008.3 1008.3 6.4
06/12:00pm 15.0 2.9 12.0 82 1.6 WNW 67 83 36 45 1008.1 1008.1 6.4
06/11:37am 14.8 3.1 12.1 84 1.5 WNW 65 83 35 45 1008.7 1008.7 4.8
06/11:30am 14.1 1.2 11.3 83 1.5 WNW 70 83 38 45 1008.5 1008.5 4.8
06/11:05am 15.0 4.0 13.2 89 1.0 WNW 63 82 34 44 1008.5 1008.5 4.6
06/11:00am 15.0 4.7 13.0 88 1.1 WNW 59 82 32 44 1008.5 1008.5 4.6
06/10:55am 14.8 7.5 13.3 91 0.8 NW 44 80 24 43 1008.3 1008.3 4.4
06/10:54am 14.7 7.9 13.2 91 0.8 NW 41 80 22 43 1008.6 1008.6 4.4
06/10:45am 14.1 7.3 13.0 93 0.6 NNW 41 57 22 31 1008.8 1008.8 4.4
06/10:30am 13.7 3.1 12.1 90 0.9 NW 59 74 32 40 1008.6 1008.6 1.2
06/10:29am 13.8 3.3 12.2 90 0.9 NW 59 74 32 40 1008.7 1008.7 1.2
06/10:15am 14.2 4.5 11.7 85 1.3 NNW 54 82 29 44 1008.5 1008.5 0.6
06/10:01am 13.4 4.3 11.1 86 1.2 N 50 69 27 37 1008.3 1008.3 0.0
06/10:00am 13.3 3.7 10.8 85 1.3 N 52 69 28 37 1008.3 1008.3 0.0
06/09:30am 14.8 4.2 11.8 82 1.6 NNW 59 85 32 46 1008.3 1008.3 0.0
06/09:29am 14.6 4.2 11.4 81 1.7 NNW 57 85 31 46 1008.4 1008.4 0.0
06/09:00am 13.6 6.2 11.1 85 1.3 N 41 61 22 33 1008.6 1008.6 17.4
06/08:43am 12.7 7.4 11.1 90 0.8 NNE 30 48 16 26 1009.0 1009.0 17.4
06/08:30am 12.6 7.6 11.0 90 0.8 NNE 28 39 15 21 1009.1 1009.1 17.2
06/08:00am 12.3 7.7 11.0 92 0.7 NNE 26 37 14 20 1009.3 1009.3 16.8
06/07:30am 12.4 7.8 11.1 92 0.7 NE 26 35 14 19 1009.6 1009.6 15.8
06/07:00am 12.3 7.7 11.0 92 0.7 NE 26 30 14 16 1009.5 1009.5 15.6
06/06:30am 12.7 8.6 11.3 91 0.7 NNE 24 32 13 17 1009.8 1009.8 15.6
06/06:00am 12.9 9.7 11.1 89 0.9 NNE 19 26 10 14 1009.6 1009.6 15.0
06/05:30am 14.1 8.8 11.3 83 1.5 N 30 41 16 22 1009.6 1009.6 15.0
06/05:19am 14.9 10.3 12.2 84 1.5 N 28 46 15 25 1009.6 1009.6 15.0
06/05:00am 14.6 9.8 11.6 82 1.6 NNW 28 37 15 20 1009.6 1009.6 15.0
06/04:30am 15.2 10.4 12.9 86 1.3 NNW 30 48 16 26 1009.8 1009.8 15.0
06/04:22am 15.1 10.7 12.8 86 1.3 NNW 28 48 15 26 1009.7 1009.7 15.0
06/04:00am 14.0 9.9 11.5 85 1.3 N 24 32 13 17 1009.8 1009.8 15.0
06/03:30am 14.3 10.3 13.0 92 0.7 N 26 43 14 23 1009.9 1009.9 15.0
06/03:00am 13.6 9.4 12.5 93 0.6 N 26 39 14 21 1009.6 1009.6 15.0
06/02:30am 13.3 8.7 12.4 94 0.5 NNE 28 35 15 19 1009.6 1009.6 15.0
06/02:00am 13.5 7.6 12.4 93 0.6 NNE 35 54 19 29 1009.5 1009.5 15.0
06/01:55am 13.5 8.0 12.4 93 0.6 NNE 33 54 18 29 1009.3 1009.3 15.0
06/01:30am 13.4 8.4 12.3 93 0.6 NNE 30 43 16 23 1009.2 1009.2 14.8
06/01:10am 13.3 7.7 12.2 93 0.6 NNE 33 56 18 30 1009.1 1009.1 14.8
06/01:00am 13.2 7.5 11.9 92 0.7 NNE 33 44 18 24 1009.3 1009.3 14.8
06/12:30am 12.8 8.0 11.5 92 0.7 NNE 28 41 15 22 1009.8 1009.8 14.8
06/12:00am 13.0 7.2 11.6 91 0.7 NNE 33 41 18 22 1010.1 1010.1 14.8
 
Date/Time
WST
Temp
°C
App
Temp
°C
Dew
Point
°C
Rel
Hum
%
Delta-T
°C
Wind Press
QNH
hPa
Press
MSL
hPa
Rain since
9am
mm
Dir  Spd
km/h
Gust
km/h
Spd
kts
Gust
kts
05/11:30pm 13.0 7.5 11.7 92 0.7 NNE 32 44 17 24 1010.9 1010.9 14.8
05/11:00pm 13.3 8.3 12.2 93 0.6 NE 30 37 16 20 1011.2 1011.2 14.8
05/10:30pm 13.4 8.9 12.5 94 0.5 NE 28 37 15 20 1011.5 1011.5 14.8

Other formats

Comma delimited format used in spreadsheet applications
http://www.bom.gov.au/fwo/IDW60801/IDW60801.94601.axf

JavaScript Object Notation format (JSON) in row-major order
http://www.bom.gov.au/fwo/IDW60801/IDW60801.94601.json

Data quality

Most of these data are generated automatically and are frequently updated. Quality checks on data are not normally performed. It is possible for incorrect values to appear. Refer to information at About Latest Weather Observations and please check the disclaimer before using these data.